HLE05 EGPF-EGPA

Flight info

Callsign HLE05
Flight time 1h 30m
Altitude 7000
Route INS DCT WIK
Aircraft H145/L-SDFGRY/C

Departure

Time 2026-05-06 14:50
Airport Glasgow Airport (EGPF)

Arrival

Time 2026-05-06 16:20
Airport Kirkwall Airport (EGPA)
Time Latitude Longitude Altitude Speed Heading
2026-05-06 14:48 55.87273 -4.42584 28 ft 0 kts 345°
2026-05-06 14:49 55.87274 -4.42583 28 ft 0 kts 326°
2026-05-06 14:49 55.87266 -4.42634 51 ft 25 kts 217°
2026-05-06 14:49 55.87123 -4.43367 218 ft 98 kts 230°
2026-05-06 14:50 55.86612 -4.44445 432 ft 108 kts 216°
2026-05-06 14:50 55.86162 -4.45338 965 ft 88 kts 220°
2026-05-06 14:50 55.85824 -4.46113 1434 ft 73 kts 218°
2026-05-06 14:50 55.85658 -4.47063 1674 ft 95 kts 257°
2026-05-06 14:51 55.85777 -4.48255 1932 ft 98 kts 269°
2026-05-06 14:51 55.85914 -4.49457 2242 ft 99 kts 268°
2026-05-06 14:51 55.86045 -4.50646 2573 ft 99 kts 269°
2026-05-06 14:51 55.86173 -4.51871 2861 ft 104 kts 267°
2026-05-06 14:52 55.86447 -4.53132 3116 ft 122 kts 278°
2026-05-06 14:52 55.87148 -4.54221 3186 ft 144 kts 316°
2026-05-06 14:52 55.88098 -4.54628 3473 ft 144 kts 346°
2026-05-06 14:52 55.89035 -4.54196 3722 ft 141 kts 17°
2026-05-06 14:53 55.89733 -4.53150 4035 ft 129 kts 38°
2026-05-06 14:53 55.90519 -4.52237 4084 ft 133 kts
2026-05-06 14:53 55.91500 -4.52116 4081 ft 147 kts 344°
2026-05-06 14:53 55.92523 -4.52129 4077 ft 146 kts 346°
2026-05-06 14:54 55.93531 -4.51995 4076 ft 144 kts 353°
2026-05-06 14:54 55.94530 -4.51755 4084 ft 145 kts 353°
2026-05-06 14:54 55.95518 -4.51479 4075 ft 143 kts 354°
2026-05-06 14:54 55.96505 -4.51189 4082 ft 143 kts 354°
2026-05-06 14:55 55.97484 -4.50907 4076 ft 145 kts 360°
2026-05-06 14:55 55.98484 -4.50603 4077 ft 142 kts 359°
2026-05-06 14:55 55.99449 -4.50309 4075 ft 142 kts
2026-05-06 14:55 56.00416 -4.50026 4070 ft 141 kts 359°
2026-05-06 14:56 56.01393 -4.49750 4076 ft 142 kts 359°
2026-05-06 14:56 56.02370 -4.49471 4068 ft 143 kts 359°
2026-05-06 14:56 56.03357 -4.49188 4075 ft 142 kts 358°
2026-05-06 14:56 56.04322 -4.48913 4072 ft 143 kts 358°
2026-05-06 14:57 56.05294 -4.48633 4064 ft 141 kts 358°
2026-05-06 14:57 56.06275 -4.48353 4071 ft 142 kts 358°
2026-05-06 14:57 56.07262 -4.48070 4070 ft 145 kts 358°
2026-05-06 14:57 56.08246 -4.47788 4065 ft 142 kts 359°
2026-05-06 14:58 56.09221 -4.47508 4069 ft 141 kts 359°
2026-05-06 14:58 56.10193 -4.47229 4065 ft 142 kts 358°
2026-05-06 14:58 56.11172 -4.46948 4063 ft 142 kts 359°
2026-05-06 14:58 56.12147 -4.46666 4063 ft 145 kts 359°
2026-05-06 14:59 56.13133 -4.46383 4061 ft 142 kts 359°
2026-05-06 14:59 56.14125 -4.46099 4064 ft 141 kts 358°
2026-05-06 14:59 56.15080 -4.45823 4059 ft 142 kts 359°
2026-05-06 14:59 56.16056 -4.45543 4059 ft 142 kts 358°
2026-05-06 15:00 56.17040 -4.45259 4062 ft 144 kts 358°
2026-05-06 15:00 56.18025 -4.44976 4056 ft 143 kts 359°
2026-05-06 15:00 56.18990 -4.44698 4061 ft 141 kts 358°
2026-05-06 15:00 56.19962 -4.44416 4056 ft 142 kts 358°
2026-05-06 15:01 56.20935 -4.44135 4045 ft 142 kts 359°
2026-05-06 15:01 56.21925 -4.43850 4055 ft 143 kts 358°
2026-05-06 15:01 56.22904 -4.43565 4049 ft 144 kts 359°
2026-05-06 15:01 56.23892 -4.43280 4050 ft 144 kts 359°
2026-05-06 15:02 56.24879 -4.42995 4050 ft 145 kts 359°
2026-05-06 15:02 56.25859 -4.42711 4047 ft 145 kts 359°
2026-05-06 15:02 56.26860 -4.42422 4051 ft 144 kts 359°
2026-05-06 15:02 56.27847 -4.42137 4054 ft 144 kts 358°
2026-05-06 15:03 56.28834 -4.41849 4045 ft 144 kts 359°
2026-05-06 15:03 56.29828 -4.41561 4049 ft 145 kts 358°
2026-05-06 15:03 56.30826 -4.41271 4052 ft 145 kts 358°
2026-05-06 15:03 56.31831 -4.40980 4054 ft 144 kts 358°
2026-05-06 15:04 56.32809 -4.40695 4053 ft 145 kts 358°
2026-05-06 15:04 56.33792 -4.40411 4051 ft 141 kts 357°
2026-05-06 15:04 56.34774 -4.40121 4056 ft 143 kts 358°
2026-05-06 15:04 56.35760 -4.39839 4052 ft 145 kts 358°
2026-05-06 15:05 56.36751 -4.39554 4048 ft 143 kts 358°
2026-05-06 15:05 56.37725 -4.39266 4051 ft 143 kts 358°
2026-05-06 15:05 56.38705 -4.38982 4054 ft 141 kts 357°
2026-05-06 15:05 56.39686 -4.38697 4049 ft 143 kts 358°
2026-05-06 15:06 56.40672 -4.38403 4046 ft 145 kts 360°
2026-05-06 15:06 56.41671 -4.38115 4054 ft 143 kts 359°
2026-05-06 15:06 56.42661 -4.37822 4053 ft 143 kts 359°
2026-05-06 15:06 56.43646 -4.37534 4051 ft 143 kts 359°
2026-05-06 15:07 56.44624 -4.37250 4059 ft 143 kts 358°
2026-05-06 15:07 56.45613 -4.36960 4054 ft 145 kts 359°
2026-05-06 15:07 56.46604 -4.36671 4054 ft 142 kts 358°
2026-05-06 15:07 56.47592 -4.36381 4054 ft 143 kts 359°
2026-05-06 15:08 56.48568 -4.36095 4051 ft 143 kts 359°
2026-05-06 15:08 56.49543 -4.35810 4055 ft 143 kts 358°
2026-05-06 15:08 56.50545 -4.35516 4050 ft 146 kts 358°
2026-05-06 15:08 56.51535 -4.35225 4055 ft 144 kts 358°
2026-05-06 15:09 56.52521 -4.34935 4051 ft 143 kts 358°
2026-05-06 15:09 56.53502 -4.34649 4047 ft 143 kts 358°
2026-05-06 15:09 56.54492 -4.34358 4051 ft 145 kts 358°
2026-05-06 15:09 56.55487 -4.34064 4051 ft 146 kts 358°
2026-05-06 15:10 56.56484 -4.33770 4050 ft 145 kts 358°
2026-05-06 15:10 56.57476 -4.33478 4049 ft 143 kts 359°
2026-05-06 15:10 56.58464 -4.33188 4050 ft 145 kts 358°
2026-05-06 15:10 56.59445 -4.32898 4053 ft 144 kts 357°
2026-05-06 15:11 56.60451 -4.32600 4054 ft 147 kts 358°
2026-05-06 15:11 56.61447 -4.32312 4047 ft 145 kts 359°
2026-05-06 15:11 56.62433 -4.32019 4047 ft 142 kts 358°
2026-05-06 15:11 56.63423 -4.31722 4050 ft 147 kts 359°
2026-05-06 15:12 56.64424 -4.31429 4047 ft 147 kts 359°
2026-05-06 15:12 56.65428 -4.31134 4050 ft 144 kts 358°
2026-05-06 15:12 56.66415 -4.30840 4046 ft 144 kts 357°
2026-05-06 15:12 56.67387 -4.30553 4047 ft 142 kts 358°
2026-05-06 15:13 56.68380 -4.30259 4049 ft 144 kts 357°
2026-05-06 15:13 56.69370 -4.29965 4042 ft 147 kts 358°
2026-05-06 15:13 56.70374 -4.29669 4051 ft 143 kts 357°
2026-05-06 15:13 56.71363 -4.29373 4045 ft 144 kts 358°
2026-05-06 15:14 56.72345 -4.29082 4048 ft 143 kts 358°
2026-05-06 15:14 56.73323 -4.28792 4049 ft 144 kts 358°
2026-05-06 15:14 56.74317 -4.28496 4045 ft 146 kts 358°
2026-05-06 15:14 56.75319 -4.28199 4044 ft 145 kts 358°
2026-05-06 15:15 56.76320 -4.27902 4049 ft 144 kts 359°
2026-05-06 15:15 56.77300 -4.27609 4041 ft 143 kts 358°
2026-05-06 15:15 56.78292 -4.27314 4051 ft 144 kts 357°
2026-05-06 15:15 56.79277 -4.27019 4048 ft 144 kts 356°
2026-05-06 15:16 56.80266 -4.26729 4036 ft 144 kts 358°
2026-05-06 15:16 56.81263 -4.26428 4047 ft 144 kts 356°
2026-05-06 15:16 56.82252 -4.26133 4035 ft 146 kts 359°
2026-05-06 15:16 56.83244 -4.25838 4048 ft 143 kts 356°
2026-05-06 15:17 56.84228 -4.25551 4041 ft 145 kts 356°
2026-05-06 15:17 56.85221 -4.25246 4041 ft 144 kts 356°
2026-05-06 15:17 56.86204 -4.24956 4038 ft 143 kts 357°
2026-05-06 15:17 56.87187 -4.24661 4034 ft 144 kts 357°
2026-05-06 15:18 56.88180 -4.24363 4037 ft 144 kts 357°
2026-05-06 15:18 56.89172 -4.24066 4042 ft 145 kts 357°
2026-05-06 15:18 56.90147 -4.23772 4040 ft 143 kts 356°
2026-05-06 15:18 56.91139 -4.23475 4038 ft 142 kts 357°
2026-05-06 15:19 56.92117 -4.23182 4037 ft 144 kts 357°
2026-05-06 15:19 56.93099 -4.22887 4039 ft 145 kts 357°
2026-05-06 15:19 56.94097 -4.22588 4041 ft 145 kts 357°
2026-05-06 15:19 56.95090 -4.22289 4040 ft 144 kts 357°
2026-05-06 15:20 56.96075 -4.21993 4038 ft 142 kts 358°
2026-05-06 15:20 56.97061 -4.21697 4043 ft 144 kts 357°
2026-05-06 15:20 56.98049 -4.21399 4037 ft 145 kts 357°
2026-05-06 15:20 56.99037 -4.21103 4039 ft 144 kts 356°
2026-05-06 15:21 57.00033 -4.20802 4036 ft 144 kts 358°
2026-05-06 15:21 57.01003 -4.20514 4027 ft 140 kts 352°
2026-05-06 15:21 57.01976 -4.20232 4042 ft 142 kts 354°
2026-05-06 15:21 57.02956 -4.19943 4037 ft 143 kts 355°
2026-05-06 15:22 57.03942 -4.19647 4040 ft 141 kts 355°
2026-05-06 15:22 57.04919 -4.19356 4040 ft 141 kts 355°
2026-05-06 15:22 57.05885 -4.19067 4033 ft 142 kts 355°
2026-05-06 15:22 57.06863 -4.18768 4041 ft 143 kts 355°
2026-05-06 15:23 57.07835 -4.18476 4040 ft 142 kts 355°
2026-05-06 15:23 57.08818 -4.18187 4036 ft 144 kts 352°
2026-05-06 15:23 57.09814 -4.17894 4036 ft 144 kts 353°
2026-05-06 15:23 57.10800 -4.17592 4033 ft 143 kts 354°
2026-05-06 15:24 57.11788 -4.17289 4034 ft 144 kts 356°
2026-05-06 15:24 57.12782 -4.16989 4033 ft 144 kts 354°
2026-05-06 15:24 57.13757 -4.16693 4034 ft 143 kts 356°
2026-05-06 15:24 57.14743 -4.16390 4035 ft 142 kts 357°
2026-05-06 15:25 57.15725 -4.16089 4030 ft 143 kts 356°
2026-05-06 15:25 57.16705 -4.15789 4031 ft 142 kts 356°
2026-05-06 15:25 57.17692 -4.15485 4031 ft 144 kts 356°
2026-05-06 15:25 57.18671 -4.15183 4031 ft 142 kts 356°
2026-05-06 15:26 57.19639 -4.14884 4027 ft 143 kts 358°
2026-05-06 15:26 57.20627 -4.14562 4030 ft 146 kts 358°
2026-05-06 15:26 57.21625 -4.14256 4037 ft 144 kts 356°
2026-05-06 15:26 57.22624 -4.13959 4034 ft 146 kts 357°
2026-05-06 15:27 57.23626 -4.13647 4035 ft 146 kts 357°
2026-05-06 15:27 57.24600 -4.13353 4032 ft 142 kts 356°
2026-05-06 15:27 57.25596 -4.13042 4041 ft 146 kts 356°
2026-05-06 15:27 57.26591 -4.12744 4029 ft 146 kts 357°
2026-05-06 15:28 57.27596 -4.12435 4040 ft 144 kts 356°
2026-05-06 15:28 57.28581 -4.12133 4038 ft 145 kts 357°
2026-05-06 15:28 57.29570 -4.11830 4038 ft 144 kts 357°
2026-05-06 15:28 57.30539 -4.11532 4041 ft 143 kts 357°
2026-05-06 15:29 57.31519 -4.11231 4041 ft 144 kts 357°
2026-05-06 15:29 57.32490 -4.10936 4039 ft 138 kts 356°
2026-05-06 15:29 57.33437 -4.10639 4043 ft 137 kts 359°
2026-05-06 15:29 57.34376 -4.10348 4043 ft 137 kts 359°
2026-05-06 15:30 57.35312 -4.10060 4044 ft 137 kts 359°
2026-05-06 15:30 57.36254 -4.09772 4047 ft 137 kts 359°
2026-05-06 15:30 57.37179 -4.09489 4044 ft 137 kts 359°
2026-05-06 15:30 57.38122 -4.09207 4045 ft 138 kts 356°
2026-05-06 15:31 57.39073 -4.08927 4048 ft 138 kts 359°
2026-05-06 15:31 57.40010 -4.08627 4045 ft 136 kts 360°
2026-05-06 15:31 57.40946 -4.08328 4047 ft 136 kts 359°
2026-05-06 15:32 57.42817 -4.07752 4049 ft 136 kts
2026-05-06 15:32 57.43741 -4.07462 4049 ft 136 kts
2026-05-06 15:32 57.44678 -4.07165 4050 ft 136 kts
2026-05-06 15:32 57.45617 -4.06865 4050 ft 137 kts
2026-05-06 15:33 57.46556 -4.06562 4052 ft 136 kts
2026-05-06 15:33 57.47173 -4.06367 4051 ft 136 kts 358°
2026-05-06 15:33 57.48110 -4.06086 4051 ft 136 kts 357°
2026-05-06 15:33 57.49353 -4.05733 4054 ft 136 kts 355°
2026-05-06 15:34 57.49984 -4.05555 4048 ft 136 kts 355°
2026-05-06 15:34 57.50915 -4.05272 4053 ft 137 kts 356°
2026-05-06 15:34 57.51835 -4.05240 4045 ft 132 kts 343°
2026-05-06 15:34 57.52779 -4.05157 4051 ft 138 kts 356°
2026-05-06 15:35 57.53684 -4.04499 4052 ft 141 kts 11°
2026-05-06 15:35 57.54523 -4.03623 4049 ft 139 kts 14°
2026-05-06 15:35 57.55382 -4.02719 4051 ft 141 kts 12°
2026-05-06 15:35 57.56230 -4.01858 4052 ft 141 kts 13°
2026-05-06 15:36 57.57084 -4.00990 4050 ft 139 kts 13°
2026-05-06 15:36 57.57947 -4.00132 4053 ft 140 kts 12°
2026-05-06 15:36 57.58785 -3.99291 3928 ft 138 kts 22°
2026-05-06 15:36 57.59614 -3.98420 3798 ft 136 kts 21°
2026-05-06 15:37 57.60441 -3.97570 3671 ft 135 kts 21°
2026-05-06 15:37 57.61265 -3.96735 3535 ft 135 kts 21°
2026-05-06 15:37 57.62087 -3.95914 3409 ft 135 kts 20°
2026-05-06 15:37 57.62921 -3.95081 3277 ft 136 kts 21°
2026-05-06 15:38 57.63751 -3.94252 3149 ft 135 kts 21°
2026-05-06 15:38 57.64577 -3.93429 3018 ft 133 kts 22°
2026-05-06 15:38 57.65398 -3.92608 2882 ft 134 kts 22°
2026-05-06 15:38 57.66220 -3.91787 2740 ft 134 kts 22°
2026-05-06 15:39 57.67034 -3.90973 2612 ft 133 kts 22°
2026-05-06 15:39 57.67848 -3.90159 2486 ft 132 kts 22°
2026-05-06 15:39 57.68655 -3.89351 2354 ft 130 kts 23°
2026-05-06 15:39 57.69455 -3.88550 2223 ft 130 kts 23°
2026-05-06 15:40 57.70252 -3.87752 2090 ft 130 kts 24°
2026-05-06 15:40 57.71046 -3.86952 2034 ft 129 kts 25°
2026-05-06 15:40 57.71838 -3.86149 2037 ft 129 kts 25°
2026-05-06 15:40 57.72628 -3.85348 2036 ft 130 kts 26°
2026-05-06 15:41 57.73413 -3.84550 2036 ft 130 kts 25°
2026-05-06 15:41 57.74209 -3.83743 2037 ft 130 kts 25°
2026-05-06 15:41 57.75005 -3.82937 2036 ft 130 kts 25°
2026-05-06 15:41 57.75797 -3.82135 2038 ft 129 kts 24°
2026-05-06 15:42 57.76590 -3.81338 2043 ft 129 kts 25°
2026-05-06 15:42 57.77380 -3.80543 2041 ft 129 kts 25°
2026-05-06 15:42 57.78165 -3.79751 2042 ft 129 kts 25°
2026-05-06 15:42 57.78956 -3.78955 2042 ft 129 kts 25°
2026-05-06 15:43 57.79747 -3.78158 2043 ft 128 kts 25°
2026-05-06 15:43 57.80542 -3.77355 2043 ft 129 kts 25°
2026-05-06 15:43 57.81326 -3.76564 2042 ft 130 kts 25°
2026-05-06 15:43 57.82120 -3.75763 2042 ft 129 kts 25°
2026-05-06 15:44 57.82912 -3.74963 2047 ft 129 kts 24°
2026-05-06 15:44 57.83702 -3.74166 2046 ft 129 kts 25°
2026-05-06 15:44 57.84498 -3.73361 2045 ft 129 kts 25°
2026-05-06 15:44 57.85291 -3.72558 2044 ft 130 kts 26°
2026-05-06 15:45 57.86083 -3.71756 2044 ft 129 kts 25°
2026-05-06 15:45 57.86881 -3.70950 2045 ft 129 kts 24°
2026-05-06 15:45 57.87661 -3.70159 2044 ft 129 kts 26°
2026-05-06 15:45 57.88447 -3.69362 2043 ft 128 kts 26°
2026-05-06 15:46 57.89235 -3.68563 2044 ft 129 kts 26°
2026-05-06 15:46 57.90022 -3.67765 2043 ft 128 kts 26°
2026-05-06 15:46 57.90804 -3.66970 2042 ft 128 kts 26°
2026-05-06 15:46 57.91592 -3.66170 2044 ft 129 kts 26°
2026-05-06 15:47 57.92374 -3.65376 2044 ft 130 kts 24°
2026-05-06 15:47 57.93172 -3.64566 2046 ft 129 kts 24°
2026-05-06 15:47 57.93963 -3.63760 2044 ft 129 kts 24°
2026-05-06 15:47 57.94752 -3.62957 2044 ft 129 kts 24°
2026-05-06 15:48 57.95542 -3.62153 2045 ft 129 kts 24°
2026-05-06 15:48 57.96336 -3.61345 2045 ft 130 kts 24°
2026-05-06 15:48 57.97119 -3.60547 2044 ft 129 kts 24°
2026-05-06 15:48 57.97909 -3.59741 2045 ft 129 kts 24°
2026-05-06 15:49 57.98693 -3.58941 2046 ft 129 kts 24°
2026-05-06 15:49 57.99483 -3.58135 2046 ft 129 kts 24°
2026-05-06 15:49 58.00276 -3.57325 2046 ft 129 kts 24°
2026-05-06 15:49 58.01065 -3.56520 2045 ft 129 kts 24°
2026-05-06 15:50 58.01853 -3.55713 2043 ft 129 kts 24°
2026-05-06 15:50 58.02641 -3.54908 2042 ft 129 kts 24°
2026-05-06 15:50 58.03432 -3.54098 2042 ft 129 kts 24°
2026-05-06 15:50 58.04224 -3.53288 2044 ft 129 kts 24°
2026-05-06 15:51 58.05014 -3.52478 2042 ft 129 kts 24°
2026-05-06 15:51 58.05803 -3.51671 2042 ft 129 kts 24°
2026-05-06 15:51 58.06580 -3.50873 2042 ft 129 kts 24°
2026-05-06 15:51 58.07370 -3.50062 2042 ft 129 kts 24°
2026-05-06 15:52 58.08162 -3.49249 2043 ft 129 kts 24°
2026-05-06 15:52 58.08951 -3.48439 2042 ft 129 kts 24°
2026-05-06 15:52 58.09736 -3.47632 2041 ft 128 kts 24°
2026-05-06 15:52 58.10525 -3.46821 2046 ft 129 kts 24°
2026-05-06 15:53 58.11304 -3.46021 2046 ft 129 kts 24°
2026-05-06 15:53 58.12092 -3.45209 2045 ft 128 kts 24°
2026-05-06 15:53 58.12880 -3.44399 2045 ft 128 kts 24°
2026-05-06 15:53 58.13666 -3.43589 2053 ft 128 kts 24°
2026-05-06 15:54 58.14452 -3.42779 2054 ft 128 kts 24°
2026-05-06 15:54 58.15231 -3.41976 2053 ft 129 kts 24°
2026-05-06 15:54 58.16018 -3.41164 2054 ft 126 kts 26°
2026-05-06 15:54 58.16787 -3.40371 2053 ft 126 kts 26°
2026-05-06 15:55 58.17554 -3.39579 2053 ft 125 kts 26°
2026-05-06 15:55 58.18321 -3.38785 2053 ft 125 kts 26°
2026-05-06 15:55 58.19088 -3.37992 2048 ft 127 kts 25°
2026-05-06 15:55 58.19869 -3.37196 2054 ft 127 kts 24°
2026-05-06 15:56 58.20639 -3.36414 2053 ft 128 kts 24°
2026-05-06 15:56 58.21424 -3.35619 2057 ft 127 kts 24°
2026-05-06 15:56 58.22205 -3.34820 2055 ft 127 kts 25°
2026-05-06 15:56 58.22983 -3.34012 2055 ft 127 kts 25°
2026-05-06 15:57 58.23754 -3.33212 2055 ft 128 kts 25°
2026-05-06 15:57 58.24535 -3.32402 2056 ft 128 kts 24°
2026-05-06 15:57 58.25313 -3.31595 2055 ft 127 kts 25°
2026-05-06 15:57 58.26092 -3.30787 2056 ft 127 kts 25°
2026-05-06 15:58 58.26871 -3.29977 2056 ft 127 kts 24°
2026-05-06 15:58 58.27651 -3.29167 2055 ft 128 kts 25°
2026-05-06 15:58 58.28421 -3.28365 2056 ft 127 kts 25°
2026-05-06 15:58 58.29200 -3.27556 2055 ft 127 kts 25°
2026-05-06 15:59 58.29977 -3.26746 2058 ft 127 kts 25°
2026-05-06 15:59 58.30759 -3.25956 2056 ft 127 kts 22°
2026-05-06 15:59 58.31547 -3.25174 2054 ft 128 kts 21°
2026-05-06 15:59 58.32335 -3.24367 2056 ft 128 kts 23°
2026-05-06 16:00 58.33109 -3.23563 2064 ft 128 kts 24°
2026-05-06 16:00 58.33890 -3.22748 2066 ft 128 kts 24°
2026-05-06 16:00 58.34671 -3.21933 2067 ft 128 kts 23°
2026-05-06 16:00 58.35452 -3.21119 2070 ft 128 kts 23°
2026-05-06 16:01 58.36238 -3.20301 2077 ft 128 kts 23°
2026-05-06 16:01 58.37018 -3.19483 2078 ft 128 kts 23°
2026-05-06 16:01 58.37795 -3.18673 2086 ft 124 kts 11°
2026-05-06 16:01 58.38585 -3.17899 2078 ft 131 kts
2026-05-06 16:02 58.39403 -3.17091 2076 ft 133 kts
2026-05-06 16:02 58.40215 -3.16263 2077 ft 132 kts 11°
2026-05-06 16:02 58.41026 -3.15422 2076 ft 132 kts 15°
2026-05-06 16:02 58.41818 -3.14578 2078 ft 131 kts 16°
2026-05-06 16:03 58.42601 -3.13730 2076 ft 131 kts 17°
2026-05-06 16:03 58.43373 -3.12818 2071 ft 131 kts 19°
2026-05-06 16:03 58.44075 -3.11731 2083 ft 129 kts 27°
2026-05-06 16:03 58.44847 -3.10908 2069 ft 128 kts 15°
2026-05-06 16:04 58.45712 -3.10310 2082 ft 132 kts
2026-05-06 16:04 58.46606 -3.09867 2079 ft 133 kts
2026-05-06 16:04 58.47505 -3.09484 2078 ft 133 kts
2026-05-06 16:04 58.48401 -3.09113 2079 ft 133 kts
2026-05-06 16:05 58.49315 -3.08738 2078 ft 134 kts
2026-05-06 16:05 58.50223 -3.08367 2079 ft 133 kts
2026-05-06 16:05 58.51128 -3.07993 2076 ft 133 kts
2026-05-06 16:05 58.52033 -3.07623 2078 ft 133 kts
2026-05-06 16:06 58.52946 -3.07250 2078 ft 134 kts
2026-05-06 16:06 58.53847 -3.06877 2077 ft 135 kts
2026-05-06 16:06 58.54760 -3.06497 2076 ft 134 kts
2026-05-06 16:06 58.55664 -3.06249 2082 ft 127 kts 343°
2026-05-06 16:07 58.56556 -3.06593 2079 ft 133 kts 333°
2026-05-06 16:07 58.57463 -3.06999 2082 ft 134 kts 334°
2026-05-06 16:07 58.58379 -3.07339 2075 ft 134 kts 336°
2026-05-06 16:07 58.59303 -3.07626 2074 ft 135 kts 338°
2026-05-06 16:08 58.60228 -3.07904 2075 ft 134 kts 341°
2026-05-06 16:08 58.61146 -3.08156 2074 ft 133 kts 341°
2026-05-06 16:08 58.62057 -3.08406 2075 ft 132 kts 340°
2026-05-06 16:08 58.62963 -3.08658 2074 ft 133 kts 340°
2026-05-06 16:09 58.63877 -3.08913 2073 ft 133 kts 340°
2026-05-06 16:09 58.64797 -3.09169 2071 ft 133 kts 341°
2026-05-06 16:09 58.65710 -3.09411 2072 ft 132 kts 343°
2026-05-06 16:09 58.66617 -3.09654 2071 ft 131 kts 342°
2026-05-06 16:10 58.67526 -3.09912 2072 ft 131 kts 342°
2026-05-06 16:10 58.68433 -3.10173 2072 ft 132 kts 342°
2026-05-06 16:10 58.69343 -3.10436 2069 ft 132 kts 342°
2026-05-06 16:10 58.70254 -3.10694 2070 ft 132 kts 342°
2026-05-06 16:11 58.71150 -3.10949 2068 ft 132 kts 342°
2026-05-06 16:11 58.72061 -3.11208 2068 ft 132 kts 342°
2026-05-06 16:11 58.72965 -3.11464 2066 ft 132 kts 342°
2026-05-06 16:11 58.73877 -3.11724 2070 ft 132 kts 342°
2026-05-06 16:12 58.74786 -3.11982 2068 ft 132 kts 342°
2026-05-06 16:12 58.75702 -3.12243 2070 ft 133 kts 342°
2026-05-06 16:12 58.76603 -3.12499 2068 ft 132 kts 342°
2026-05-06 16:12 58.77514 -3.12758 2071 ft 132 kts 342°
2026-05-06 16:13 58.78416 -3.13016 2069 ft 131 kts 342°
2026-05-06 16:13 58.79324 -3.13275 2072 ft 132 kts 342°
2026-05-06 16:13 58.80232 -3.13534 2070 ft 132 kts 342°
2026-05-06 16:13 58.81147 -3.13796 2073 ft 132 kts 342°
2026-05-06 16:14 58.82044 -3.14052 2072 ft 132 kts 342°
2026-05-06 16:14 58.82957 -3.14313 2074 ft 132 kts 342°
2026-05-06 16:14 58.83863 -3.14572 2072 ft 131 kts 342°
2026-05-06 16:14 58.84759 -3.14829 2073 ft 132 kts 342°
2026-05-06 16:15 58.85670 -3.15090 2073 ft 133 kts 340°
2026-05-06 16:15 58.86590 -3.15353 2074 ft 133 kts 340°
2026-05-06 16:15 58.87494 -3.15612 2075 ft 132 kts 341°
2026-05-06 16:15 58.88417 -3.15543 2080 ft 134 kts 352°
2026-05-06 16:16 58.89310 -3.15008 2071 ft 134 kts
2026-05-06 16:16 58.90200 -3.14422 2077 ft 134 kts
2026-05-06 16:16 58.91089 -3.13858 2074 ft 134 kts
2026-05-06 16:16 58.91974 -3.13316 2078 ft 133 kts
2026-05-06 16:17 58.92857 -3.12783 2077 ft 132 kts
2026-05-06 16:17 58.93738 -3.12257 2072 ft 134 kts 15°
2026-05-06 16:17 58.94461 -3.11162 2077 ft 135 kts 43°
2026-05-06 16:17 58.94836 -3.09506 2072 ft 136 kts 69°
2026-05-06 16:18 58.94935 -3.07714 2077 ft 133 kts 78°
2026-05-06 16:18 58.95014 -3.05948 2095 ft 126 kts 77°
2026-05-06 16:18 58.95112 -3.04214 2082 ft 132 kts 79°
2026-05-06 16:18 58.95227 -3.02479 2111 ft 131 kts 78°
2026-05-06 16:19 58.95345 -3.00727 2138 ft 127 kts 75°
2026-05-06 16:19 58.95498 -2.99218 1876 ft 116 kts 59°
2026-05-06 16:19 58.95554 -2.97492 1537 ft 128 kts 79°
2026-05-06 16:19 58.95695 -2.95741 1444 ft 119 kts 69°
2026-05-06 16:20 58.95736 -2.94331 1225 ft 95 kts 56°
2026-05-06 16:20 58.95723 -2.93163 957 ft 76 kts 70°
2026-05-06 16:20 58.95711 -2.92318 684 ft 52 kts 59°
2026-05-06 16:20 58.95644 -2.91738 460 ft 35 kts 87°
2026-05-06 16:21 58.95602 -2.91224 290 ft 46 kts 80°
2026-05-06 16:21 58.95570 -2.90599 138 ft 45 kts 79°
2026-05-06 16:21 58.95466 -2.90081 140 ft 29 kts 15°
2026-05-06 16:21 58.95422 -2.90010 54 ft 5 kts 58°
2026-05-06 16:22 58.95422 -2.89991 41 ft 0 kts 251°
2026-05-06 16:22 58.95414 -2.90014 41 ft 0 kts 279°